Time;durP1;ratioP1;P1;durP2;ratioP2;P2;SDS_P1;SDS_P2;PMS_P1;PMS_P2;Temp;Humidity;BMP_temperature;BMP_pressure;BME280_temperature;BME280_humidity;BME280_pressure;Samples;Min_cycle;Max_cycle;Signal;HPM_P1;HPM_P2
2022/02/08 00:01:12;;;;;;;0.63;0.60;;;;;;;2.02;17.77;93381.81;5055081;28;20096;-90
2022/02/08 00:04:13;;;;;;;0.43;0.43;;;;;;;1.84;18.18;93367.84;5063739;28;20060;-91
2022/02/08 00:06:46;;;;;;;0.40;0.40;;;;;;;1.68;17.83;93352.88;5054314;28;20678;-90
2022/02/08 00:12:57;;;;;;;0.55;0.50;;;;;;;1.77;17.34;93363.72;5045943;28;20080;-91
2022/02/08 00:15:54;;;;;;;0.50;0.50;;;;;;;1.67;17.49;93346.16;5071503;28;20064;-91
2022/02/08 00:18:50;;;;;;;0.77;0.60;;;;;;;1.90;17.49;93386.88;5037755;28;20037;-89
2022/02/08 00:21:48;;;;;;;;;;;;;;;2.17;17.52;93425.41;5054816;28;20044;-88
2022/02/08 00:24:41;;;;;;;0.60;0.50;;;;;;;1.87;17.34;93382.94;5071448;28;19912;-92
2022/02/08 00:27:31;;;;;;;0.60;0.45;;;;;;;1.91;17.61;93395.41;5052255;28;20086;-91
2022/02/08 00:30:10;;;;;;;0.50;0.50;;;;;;;1.62;17.04;93343.38;5068416;28;20040;-90
2022/02/08 00:32:44;;;;;;;0.68;0.57;;;;;;;1.85;16.86;93364.28;5055651;28;20036;-90
2022/02/08 00:35:51;;;;;;;1.08;0.70;;;;;;;1.78;16.82;93358.38;5041802;28;20048;-90
2022/02/08 00:38:37;;;;;;;0.40;0.40;;;;;;;1.90;17.41;93360.28;5015254;28;20044;-91
2022/02/08 00:41:38;;;;;;;0.70;0.70;;;;;;;1.95;17.56;93378.50;5044912;28;20385;-90
2022/02/08 00:45:05;;;;;;;1.13;0.50;;;;;;;1.85;17.91;93389.31;5074118;28;20048;-90
2022/02/08 00:47:54;;;;;;;;;;;;;;;;;;;;;
2022/02/08 00:50:49;;;;;;;0.60;0.60;;;;;;;1.50;18.64;93345.06;5060072;28;20046;-89
2022/02/08 00:54:25;;;;;;;;;;;;;;;;;;;;;
2022/02/08 00:57:36;;;;;;;0.52;0.52;;;;;;;1.53;19.14;93391.91;5056589;28;20044;-89
2022/02/08 01:00:33;;;;;;;;;;;;;;;;;;;;;
2022/02/08 01:03:19;;;;;;;0.65;0.55;;;;;;;1.11;18.76;93339.94;5057215;28;20094;-90
2022/02/08 01:06:05;;;;;;;;;;;;;;;;;;;;;
2022/02/08 01:09:02;;;;;;;;;;;;;;;;;;;;;
2022/02/08 01:12:08;;;;;;;0.85;0.60;;;;;;;1.07;19.61;93351.66;5046100;28;20074;-90
2022/02/08 01:14:40;;;;;;;1.30;0.73;;;;;;;0.91;19.54;93344.41;5055449;28;20044;-89
2022/02/08 01:17:46;;;;;;;;;;;;;;;;;;;;;
2022/02/08 01:20:50;;;;;;;;;;;;;;;;;;;;;
2022/02/08 01:23:47;;;;;;;0.40;0.40;;;;;;;0.80;19.67;93325.22;5034696;28;20034;-90
2022/02/08 01:27:03;;;;;;;0.60;0.60;;;;;;;1.05;18.68;93343.34;5032455;28;20051;-89
2022/02/08 01:29:55;;;;;;;0.73;0.63;;;;;;;1.02;18.72;93333.44;5020711;28;20038;-90
2022/02/08 01:33:12;;;;;;;;;;;;;;;;;;;;;
2022/02/08 01:36:28;;;;;;;2.03;0.90;;;;;;;1.59;20.69;93403.16;5016873;28;20041;-89
2022/02/08 01:40:03;;;;;;;0.68;0.60;;;;;;;1.13;20.88;93342.31;5029786;28;20042;-91
2022/02/08 01:49:14;;;;;;;0.95;0.68;;;;;;;1.07;20.95;93345.72;5034035;28;20041;-89
2022/02/08 01:51:57;;;;;;;0.82;0.70;;;;;;;1.08;21.13;93367.91;5017617;28;20030;-89
2022/02/08 01:54:39;;;;;;;0.60;0.60;;;;;;;1.04;21.14;93363.19;5033105;28;20038;-92
2022/02/08 01:57:32;;;;;;;0.57;0.50;;;;;;;0.93;20.08;93337.28;5065616;28;20151;-89
2022/02/08 02:00:30;;;;;;;0.98;0.63;;;;;;;0.81;20.99;93326.78;5033165;28;20485;-89
2022/02/08 02:03:39;;;;;;;;;;;;;;;;;;;;;
2022/02/08 02:09:44;;;;;;;0.55;0.55;;;;;;;1.63;19.88;93391.44;5030233;28;20053;-90
2022/02/08 02:12:41;;;;;;;;;;;;;;;;;;;;;
2022/02/08 02:18:07;;;;;;;4.05;0.80;;;;;;;1.32;20.86;93358.69;5032145;28;20150;-89
2022/02/08 02:21:05;;;;;;;;;;;;;;;;;;;;;
2022/02/08 02:24:21;;;;;;;1.88;0.70;;;;;;;0.94;22.51;93318.22;5018169;28;20037;-90
2022/02/08 02:27:11;;;;;;;;;;;;;;;;;;;;;
2022/02/08 02:32:59;;;;;;;1.77;0.90;;;;;;;1.08;20.02;93306.84;4998588;28;20184;-90
2022/02/08 02:39:25;;;;;;;0.77;0.52;;;;;;;1.49;22.27;93379.59;5011599;28;20058;-89
2022/02/08 02:42:02;;;;;;;1.38;0.70;;;;;;;1.28;20.04;93305.91;5032520;28;20124;-89
2022/02/08 02:44:48;;;;;;;;;;;;;;;;;;;;;
2022/02/08 02:47:59;;;;;;;0.73;0.60;;;;;;;1.41;21.03;93332.41;5033233;28;20047;-90
2022/02/08 02:50:40;;;;;;;1.42;0.80;;;;;;;1.37;20.99;93302.84;5001259;28;20081;-91
2022/02/08 02:53:27;;;;;;;2.60;0.60;;;;;;;1.63;21.73;93360.47;5051677;28;20033;-90
2022/02/08 02:59:33;;;;;;;2.63;0.90;;;;;;;1.36;21.11;93309.03;5031992;28;20045;-89
2022/02/08 03:02:51;;;;;;;0.93;0.70;;;;;;;1.30;21.88;93302.13;5031757;28;20052;-90
2022/02/08 03:17:26;;;;;;;3.10;0.88;;;;;;;1.56;21.04;93345.03;5026895;28;20056;-90
2022/02/08 03:18:10;;;;;;;1.50;0.93;;;;;;;1.36;21.89;93313.41;5065418;28;20037;-89
2022/02/08 03:20:49;;;;;;;2.35;1.08;;;;;;;1.54;22.85;93333.34;5003850;28;20555;-89
2022/02/08 03:23:24;;;;;;;0.40;0.40;;;;;;;2.13;19.93;93391.44;5032325;28;20048;-89
2022/02/08 03:26:49;;;;;;;;;;;;;;;;;;;;;
2022/02/08 03:29:36;;;;;;;1.75;1.05;;;;;;;2.08;21.65;93393.88;5060119;28;20045;-89
2022/02/08 03:32:24;;;;;;;;;;;;;;;;;;;;;
2022/02/08 03:35:15;;;;;;;;;;;;;;;;;;;;;
2022/02/08 03:38:02;;;;;;;0.90;0.80;;;;;;;1.38;22.09;93334.63;5051817;28;20072;-90
2022/02/08 03:40:44;;;;;;;5.07;0.90;;;;;;;1.25;22.08;93304.53;5029920;28;20053;-88
2022/02/08 03:43:47;;;;;;;1.90;0.73;;;;;;;1.43;22.16;93317.50;5051517;28;20032;-88
2022/02/08 03:46:32;;;;;;;;;;;;;;;;;;;;;
2022/02/08 03:49:25;;;;;;;3.80;1.00;;;;;;;1.60;21.84;93340.22;5051119;28;20041;-88
2022/02/08 03:52:24;;;;;;;;;;;;;;;;;;;;;
2022/02/08 03:55:05;;;;;;;0.70;0.60;;;;;;;1.73;21.80;93350.44;5054430;28;20045;-88
2022/02/08 03:58:03;;;;;;;1.23;0.50;;;;;;;1.57;21.82;93327.75;5051196;28;20061;-89
2022/02/08 04:00:46;;;;;;;0.80;0.70;;;;;;;1.62;22.09;93338.22;5032524;28;20043;-88
2022/02/08 04:03:18;;;;;;;1.17;0.80;;;;;;;1.52;22.20;93330.16;5026438;28;20096;-89
2022/02/08 04:05:51;;;;;;;1.85;0.93;;;;;;;1.74;22.39;93372.69;5051051;28;20103;-89
2022/02/08 04:08:33;;;;;;;0.60;0.60;;;;;;;1.58;22.73;93355.16;5027468;28;20052;-88
2022/02/08 04:11:07;;;;;;;4.53;1.77;;;;;;;1.35;23.61;93322.94;5057914;28;20038;-89
2022/02/08 04:31:27;;;;;;;2.60;1.10;;;;;;;1.71;22.58;93362.78;5049539;28;20053;-89
2022/02/08 04:32:21;;;;;;;1.13;0.75;;;;;;;1.57;23.39;93340.66;5074291;28;19920;-90
2022/02/08 04:35:10;;;;;;;1.30;0.98;;;;;;;1.90;24.46;93410.13;5044427;28;20041;-90
2022/02/08 04:43:38;;;;;;;1.85;1.00;;;;;;;1.81;23.08;93381.19;5058175;28;20052;-90
2022/02/08 04:46:29;;;;;;;1.00;0.70;;;;;;;1.84;23.79;93367.06;5058107;28;20068;-89
2022/02/08 04:49:04;;;;;;;1.95;1.00;;;;;;;1.82;22.45;93351.78;5053181;28;20127;-89
2022/02/08 04:52:17;;;;;;;1.33;0.90;;;;;;;2.07;22.00;93351.78;5025186;28;20140;-89
2022/02/08 04:58:24;;;;;;;1.55;0.98;;;;;;;2.79;21.09;93392.63;5023871;28;20122;-89
2022/02/08 05:01:21;;;;;;;3.30;1.05;;;;;;;2.88;20.53;93377.59;5018870;28;20073;-92
2022/02/08 05:37:17;;;;;;;1.77;0.80;;;;;;;2.92;19.53;93383.91;5048669;28;20055;-90
2022/02/08 05:42:49;;;;;;;1.20;0.77;;;;;;;3.00;19.74;93388.00;5069682;28;20040;-88
2022/02/08 05:45:58;;;;;;;;;;;;;;;;;;;;;
2022/02/08 05:48:51;;;;;;;1.80;0.90;;;;;;;3.10;19.71;93411.56;5062505;28;20044;-92
2022/02/08 05:51:43;;;;;;;;;;;;;;;;;;;;;
2022/02/08 05:54:16;;;;;;;1.25;0.80;;;;;;;3.03;19.89;93419.41;5039488;28;20036;-88
2022/02/08 05:56:55;;;;;;;2.60;0.80;;;;;;;2.81;20.34;93398.34;5046614;28;20049;-90
2022/02/08 05:59:30;;;;;;;2.55;0.88;;;;;;;2.70;20.40;93394.69;5067425;28;20045;-91
2022/02/08 06:02:01;;;;;;;1.48;0.88;;;;;;;2.61;20.87;93405.53;5045439;28;20627;-89
2022/02/08 06:05:14;;;;;;;;;;;;;;;;;;;;;
2022/02/08 06:07:55;;;;;;;1.23;0.70;;;;;;;2.65;20.96;93445.47;5048412;28;20029;-88
2022/02/08 06:10:38;;;;;;;0.77;0.73;;;;;;;2.42;21.30;93420.22;5049102;28;20227;-88
2022/02/08 06:13:07;;;;;;;1.90;0.80;;;;;;;2.33;21.90;93431.84;5043996;28;20066;-89
2022/02/08 06:15:44;;;;;;;1.50;0.88;;;;;;;2.43;22.20;93473.47;5037675;28;20037;-87
2022/02/08 06:18:15;;;;;;;1.17;0.88;;;;;;;2.03;22.78;93437.63;5051378;28;20036;-87
2022/02/08 06:20:47;;;;;;;0.75;0.70;;;;;;;2.08;22.71;93461.81;5073577;28;20037;-87
2022/02/08 06:23:15;;;;;;;2.42;1.00;;;;;;;2.13;23.30;93484.44;5073761;28;20032;-87
2022/02/08 06:25:41;;;;;;;1.10;0.80;;;;;;;1.82;24.05;93452.47;5073552;28;20032;-87
2022/02/08 06:28:12;;;;;;;1.98;0.90;;;;;;;1.87;23.33;93473.28;5071349;28;20078;-88
2022/02/08 06:30:40;;;;;;;5.90;1.10;;;;;;;1.71;23.96;93465.25;5038267;28;20036;-86
2022/02/08 06:33:07;;;;;;;0.73;0.70;;;;;;;1.65;24.08;93475.41;5060783;28;20029;-86
2022/02/08 06:35:34;;;;;;;1.25;0.90;;;;;;;1.51;24.08;93457.59;5065880;28;20083;-86
2022/02/08 06:38:03;;;;;;;1.77;0.80;;;;;;;1.57;24.38;93480.00;5062689;28;20025;-85
2022/02/08 06:40:31;;;;;;;1.48;0.85;;;;;;;1.82;24.79;93535.09;5068645;28;20036;-86
2022/02/08 06:43:02;;;;;;;1.80;0.90;;;;;;;1.84;25.23;93538.25;5055572;28;20020;-86
2022/02/08 06:45:30;;;;;;;1.48;1.00;;;;;;;1.61;24.89;93512.16;5054648;28;20115;-86
2022/02/08 06:47:56;;;;;;;1.15;0.90;;;;;;;1.69;24.76;93530.00;5055612;28;20020;-86
2022/02/08 06:50:26;;;;;;;1.48;0.90;;;;;;;1.67;25.14;93522.44;5055187;28;20101;-86
2022/02/08 06:52:52;;;;;;;0.90;0.77;;;;;;;3.05;23.92;93530.44;5072275;28;20047;-86
2022/02/08 06:55:19;;;;;;;3.47;1.08;;;;;;;5.38;21.75;93515.00;5055072;28;20024;-86
2022/02/08 06:57:53;;;;;;;1.33;0.93;;;;;;;7.32;20.08;93523.72;5055400;28;20037;-87
2022/02/08 07:00:28;;;;;;;2.72;1.23;;;;;;;8.95;18.04;93496.72;5074372;28;20110;-87
2022/02/08 07:02:53;;;;;;;1.88;1.20;;;;;;;10.58;16.18;93515.97;5067728;28;20105;-86
2022/02/08 07:05:19;;;;;;;2.47;1.10;;;;;;;11.96;15.33;93554.38;5071501;28;20466;-87
2022/02/08 07:07:45;;;;;;;2.35;1.20;;;;;;;12.83;14.56;93525.78;5018565;28;20044;-86
2022/02/08 07:10:13;;;;;;;1.92;1.20;;;;;;;13.79;12.44;93524.44;5057139;28;20060;-86
2022/02/08 07:12:40;;;;;;;1.55;1.10;;;;;;;14.22;12.14;93512.06;5055166;28;20050;-86
2022/02/08 07:15:13;;;;;;;4.55;1.25;;;;;;;14.90;11.93;93533.81;5070621;28;20094;-87
2022/02/08 07:17:38;;;;;;;3.90;1.73;;;;;;;16.21;11.50;93570.63;5051028;28;20716;-86
2022/02/08 07:20:07;;;;;;;3.55;1.50;;;;;;;17.26;11.62;93572.38;5052871;28;20041;-87
2022/02/08 07:22:36;;;;;;;4.10;1.50;;;;;;;18.08;10.88;93538.53;5036387;28;20029;-87
2022/02/08 07:25:03;;;;;;;4.15;1.40;;;;;;;18.83;10.62;93554.50;5015040;28;20091;-86
2022/02/08 07:27:30;;;;;;;2.45;1.23;;;;;;;19.81;9.89;93579.53;5038651;28;20033;-87
2022/02/08 07:29:57;;;;;;;3.08;1.25;;;;;;;20.52;9.53;93584.28;5034668;28;20037;-87
2022/02/08 07:32:35;;;;;;;9.60;2.05;;;;;;;21.19;9.64;93600.47;5061331;28;20116;-86
2022/02/08 07:37:57;;;;;;;6.47;1.40;;;;;;;22.40;8.56;93571.06;5034867;28;20112;-88
2022/02/08 07:42:59;;;;;;;2.53;1.35;;;;;;;23.47;7.92;93595.59;5055820;28;20040;-87
2022/02/08 07:45:39;;;;;;;1.88;1.00;;;;;;;24.07;7.48;93589.53;5071249;28;20029;-86
2022/02/08 07:48:06;;;;;;;2.00;1.17;;;;;;;24.76;6.92;93608.03;5054067;28;20040;-87
2022/02/08 07:50:37;;;;;;;2.15;1.10;;;;;;;23.75;7.44;93615.44;5070645;28;20037;-87
2022/02/08 07:53:03;;;;;;;2.97;1.40;;;;;;;23.98;7.15;93619.13;5054898;28;20033;-87
2022/02/08 07:55:28;;;;;;;3.92;1.88;;;;;;;24.59;7.83;93601.91;5055211;28;20382;-87
2022/02/08 07:57:54;;;;;;;3.58;1.50;;;;;;;25.46;7.27;93626.00;5042694;28;20470;-86
2022/02/08 08:00:20;;;;;;;1.77;1.10;;;;;;;25.87;6.96;93613.81;5035089;28;20037;-86
2022/02/08 08:02:46;;;;;;;5.13;1.25;;;;;;;26.72;6.88;93618.34;5055279;28;20539;-87
2022/02/08 08:05:12;;;;;;;3.65;1.40;;;;;;;27.43;6.20;93612.44;5053414;28;20044;-89
2022/02/08 08:07:38;;;;;;;3.67;1.40;;;;;;;27.93;6.43;93613.03;5054489;28;20036;-87
2022/02/08 08:10:06;;;;;;;9.68;1.50;;;;;;;28.32;5.89;93615.34;5066580;28;20371;-89
2022/02/08 08:12:34;;;;;;;6.45;1.60;;;;;;;28.02;5.39;93625.06;5069593;28;20098;-87
2022/02/08 08:15:07;;;;;;;3.42;1.30;;;;;;;26.26;6.23;93626.41;5055205;28;20036;-86
2022/02/08 08:17:54;;;;;;;3.38;1.30;;;;;;;25.20;6.88;93611.31;5052984;28;20052;-87
2022/02/08 08:20:20;;;;;;;3.72;1.30;;;;;;;26.14;6.44;93616.59;5037044;28;20037;-86
2022/02/08 08:22:45;;;;;;;7.90;1.38;;;;;;;26.11;6.29;93630.72;5035369;28;20467;-86
2022/02/08 08:25:11;;;;;;;1.65;0.90;;;;;;;25.43;6.71;93630.16;5036107;28;20128;-87
2022/02/08 08:27:37;;;;;;;3.60;1.10;;;;;;;23.89;7.24;93600.56;5054729;28;20041;-86
2022/02/08 08:30:03;;;;;;;2.85;1.33;;;;;;;20.98;9.96;93635.84;5054102;28;20059;-86
2022/02/08 08:32:29;;;;;;;2.90;1.67;;;;;;;18.81;10.77;93636.25;5069167;28;20064;-86
2022/02/08 08:34:54;;;;;;;2.95;1.27;;;;;;;16.15;12.38;93606.16;5019864;28;20064;-85
2022/02/08 08:37:20;;;;;;;3.92;1.30;;;;;;;15.35;12.59;93624.59;5055882;28;20051;-85
2022/02/08 08:39:49;;;;;;;2.20;1.20;;;;;;;15.02;12.52;93641.47;5055388;28;20486;-85
2022/02/08 08:52:36;;;;;;;4.10;1.60;;;;;;;14.58;14.36;93654.66;5038491;28;20037;-87
2022/02/08 08:55:03;;;;;;;4.82;1.35;;;;;;;13.78;15.12;93636.00;5055989;28;20091;-87
2022/02/08 08:57:29;;;;;;;5.35;1.77;;;;;;;13.72;15.21;93653.69;5053498;28;20486;-86
2022/02/08 08:59:55;;;;;;;3.67;1.50;;;;;;;13.98;15.23;93654.22;5037428;28;20037;-86
2022/02/08 09:02:21;;;;;;;2.97;1.30;;;;;;;13.81;13.75;93670.44;5053564;28;20647;-86
2022/02/08 09:04:48;;;;;;;4.22;1.60;;;;;;;15.54;13.20;93635.16;5053987;28;20070;-86
2022/02/08 09:07:15;;;;;;;3.92;1.30;;;;;;;14.62;13.54;93662.81;5070544;28;20041;-90
2022/02/08 09:09:44;;;;;;;8.00;1.50;;;;;;;15.24;13.32;93678.59;5053736;28;20032;-86
2022/02/08 09:12:21;;;;;;;3.53;1.48;;;;;;;14.16;13.60;93656.19;5053785;28;20087;-85
2022/02/08 09:25:27;;;;;;;4.95;1.75;;;;;;;13.54;14.59;93695.41;5073361;28;20133;-87
2022/02/08 09:30:59;;;;;;;3.72;1.55;;;;;;;13.67;14.52;93677.44;4971619;28;20058;-86
2022/02/08 09:33:24;;;;;;;5.57;1.48;;;;;;;13.54;13.83;93703.28;5041029;28;20414;-87
2022/02/08 09:35:50;;;;;;;6.18;1.50;;;;;;;13.44;14.01;93692.84;5036527;28;20047;-88
2022/02/08 09:38:17;;;;;;;5.63;1.75;;;;;;;13.32;14.77;93710.81;5071816;28;20044;-89
2022/02/08 09:40:44;;;;;;;9.32;1.95;;;;;;;12.53;16.25;93721.13;5054262;28;20020;-86
2022/02/08 09:43:11;;;;;;;3.63;1.88;;;;;;;11.69;17.28;93723.34;5054823;28;20044;-88
2022/02/08 09:45:37;;;;;;;5.18;1.30;;;;;;;12.15;15.80;93728.56;5053491;28;20264;-88
2022/02/08 09:48:13;;;;;;;4.93;1.60;;;;;;;12.33;16.15;93677.31;5073921;28;20044;-87
2022/02/08 09:50:40;;;;;;;5.72;1.70;;;;;;;10.76;17.13;93684.91;5071691;28;20055;-87
2022/02/08 09:53:11;;;;;;;4.10;1.88;;;;;;;11.13;17.54;93728.50;5056477;28;20040;-89
2022/02/08 09:55:39;;;;;;;8.07;1.90;;;;;;;12.02;17.77;93715.97;5056951;28;20032;-87
2022/02/08 09:58:06;;;;;;;4.18;2.13;;;;;;;12.74;16.47;93732.34;5074404;28;20033;-87
2022/02/08 10:00:34;;;;;;;3.70;1.70;;;;;;;12.84;16.42;93715.78;5056752;28;20047;-87
2022/02/08 10:03:11;;;;;;;4.85;1.60;;;;;;;12.42;16.77;93715.13;5073312;28;20116;-88
2022/02/08 10:05:51;;;;;;;4.70;1.90;;;;;;;13.33;16.12;93728.94;5074118;28;20036;-88
2022/02/08 10:08:17;;;;;;;4.63;1.77;;;;;;;12.99;17.16;93742.00;5044260;28;20036;-88
2022/02/08 10:10:43;;;;;;;7.90;1.60;;;;;;;12.76;16.44;93732.09;5051997;28;20040;-87
2022/02/08 10:13:31;;;;;;;6.43;1.65;;;;;;;12.07;17.51;93734.38;5056256;28;20070;-87
2022/02/08 10:24:00;;;;;;;3.53;1.50;;;;;;;11.90;16.43;93715.47;5053745;28;20033;-87
2022/02/08 10:26:56;;;;;;;3.17;1.45;;;;;;;11.67;16.13;93696.56;5036318;28;20033;-87
2022/02/08 10:29:41;;;;;;;8.05;1.83;;;;;;;12.36;16.89;93720.66;5069521;28;20039;-89
2022/02/08 10:40:20;;;;;;;6.43;1.52;;;;;;;12.55;17.23;93703.25;5071761;28;20033;-87
2022/02/08 10:42:55;;;;;;;5.90;2.10;;;;;;;11.72;18.91;93716.78;5073644;28;20083;-87
2022/02/08 10:45:28;;;;;;;7.57;1.70;;;;;;;11.96;18.49;93717.06;5073665;28;20037;-88
2022/02/08 10:47:58;;;;;;;4.50;2.03;;;;;;;10.81;19.62;93674.47;5073203;28;20032;-87
2022/02/08 10:50:26;;;;;;;5.00;1.80;;;;;;;11.56;19.75;93723.84;5068310;28;20059;-88
2022/02/08 10:52:54;;;;;;;7.93;2.80;;;;;;;11.63;19.54;93711.25;5060993;28;20119;-89
2022/02/08 10:58:05;;;;;;;5.63;1.88;;;;;;;10.97;19.50;93697.03;5071922;28;20029;-86
2022/02/08 11:01:22;;;;;;;6.90;2.10;;;;;;;11.53;19.63;93693.69;5055230;28;20033;-87
2022/02/08 11:03:26;;;;;;;3.78;1.50;;;;;;;11.72;19.48;93698.41;5046410;28;20076;-87
2022/02/08 11:06:17;;;;;;;3.58;2.00;;;;;;;11.10;20.11;93715.91;5071238;28;20051;-86
2022/02/08 11:09:35;;;;;;;8.70;2.13;;;;;;;10.91;20.33;93695.44;5071083;28;20040;-87
2022/02/08 11:14:41;;;;;;;8.65;2.10;;;;;;;10.77;18.45;93678.63;5071300;28;20033;-87
2022/02/08 11:22:31;;;;;;;5.22;2.35;;;;;;;10.80;18.79;93699.84;5069404;28;20485;-86
2022/02/08 11:25:16;;;;;;;6.18;2.17;;;;;;;10.94;18.54;93691.50;5043161;28;20045;-88
2022/02/08 11:27:49;;;;;;;6.47;2.20;;;;;;;11.92;18.36;93705.50;5067027;28;20074;-86
2022/02/08 11:30:25;;;;;;;4.38;1.95;;;;;;;11.14;18.23;93696.00;5051866;28;20045;-86
2022/02/08 11:33:23;;;;;;;8.82;2.70;;;;;;;11.46;17.68;93701.81;5070903;28;20040;-85
2022/02/08 11:44:46;;;;;;;8.05;2.75;;;;;;;11.05;18.66;93682.63;5053444;28;20067;-86
2022/02/08 11:49:50;;;;;;;5.55;2.30;;;;;;;11.72;17.34;93680.81;5050974;28;20413;-87
2022/02/08 11:58:37;;;;;;;8.13;2.80;;;;;;;11.88;17.58;93685.03;5071016;28;20044;-86
2022/02/08 12:01:02;;;;;;;7.25;3.28;;;;;;;11.28;19.04;93686.59;5045966;28;20114;-86
2022/02/08 12:06:23;;;;;;;7.97;3.85;;;;;;;11.27;19.24;93685.00;5052065;28;20049;-85
2022/02/08 12:08:51;;;;;;;10.90;3.60;;;;;;;11.34;18.49;93672.44;5078418;28;20044;-86
2022/02/08 12:27:03;;;;;;;6.85;3.47;;;;;;;12.11;19.29;93667.16;5054817;28;20060;-86
2022/02/08 12:33:08;;;;;;;7.82;3.70;;;;;;;12.69;17.03;93645.69;5068995;28;20111;-86
2022/02/08 12:55:05;;;;;;;15.60;3.97;;;;;;;12.32;17.29;93633.75;5055682;28;20102;-86
2022/02/08 12:57:52;;;;;;;6.18;3.38;;;;;;;12.21;17.06;93633.00;5041383;28;20080;-87
2022/02/08 13:06:13;;;;;;;6.70;3.33;;;;;;;11.96;16.73;93619.97;5073927;28;20110;-86
2022/02/08 14:04:49;;;;;;;7.90;3.78;;;;;;;12.94;16.70;93612.44;5054823;28;20028;-87
2022/02/08 14:29:55;;;;;;;7.57;4.05;;;;;;;12.79;16.18;93592.28;5067744;28;20093;-86
2022/02/08 14:32:29;;;;;;;7.97;3.78;;;;;;;13.18;16.13;93607.28;5055774;28;20051;-86
2022/02/08 15:05:41;;;;;;;9.32;3.92;;;;;;;12.85;15.58;93612.22;5052930;28;20068;-87
2022/02/08 15:08:23;;;;;;;8.05;4.35;;;;;;;13.21;16.03;93606.72;5009972;28;20053;-86
2022/02/08 15:10:55;;;;;;;7.55;3.75;;;;;;;13.04;16.15;93615.00;5069534;28;20029;-87
2022/02/08 15:13:25;;;;;;;7.88;3.90;;;;;;;13.45;16.67;93601.56;5051380;28;20037;-87
2022/02/08 15:16:07;;;;;;;8.68;3.58;;;;;;;13.53;14.72;93625.44;5045736;28;20058;-87
2022/02/08 15:18:34;;;;;;;7.88;4.00;;;;;;;13.56;14.64;93621.47;5051125;28;20057;-87
2022/02/08 15:21:01;;;;;;;17.80;4.10;;;;;;;13.44;15.97;93618.41;5077968;28;20523;-87
2022/02/08 15:23:27;;;;;;;8.95;4.10;;;;;;;13.57;16.57;93622.25;5058316;28;20044;-86
2022/02/08 15:25:56;;;;;;;10.65;3.90;;;;;;;13.49;16.49;93627.06;5080239;28;20078;-86
2022/02/08 15:28:23;;;;;;;8.75;3.83;;;;;;;13.63;16.23;93621.94;5061555;28;20386;-86
2022/02/08 15:30:49;;;;;;;9.18;3.72;;;;;;;13.96;17.30;93616.91;5060777;28;20493;-87
2022/02/08 15:33:14;;;;;;;9.05;3.70;;;;;;;14.10;17.05;93632.81;5072429;28;20067;-88
2022/02/08 15:35:40;;;;;;;7.72;3.50;;;;;;;13.99;17.08;93632.13;5074151;28;20036;-86
2022/02/08 15:38:06;;;;;;;11.00;3.67;;;;;;;13.95;16.54;93628.47;5043262;28;20037;-87
2022/02/08 15:40:35;;;;;;;12.02;5.00;;;;;;;13.75;17.08;93614.44;5066018;28;20032;-87
2022/02/08 15:43:02;;;;;;;9.88;3.92;;;;;;;13.47;16.91;93587.09;5053463;28;20037;-86
2022/02/08 15:45:39;;;;;;;9.05;3.80;;;;;;;13.61;17.69;93628.53;5077222;28;20140;-86
2022/02/08 15:48:09;;;;;;;12.18;4.35;;;;;;;13.53;17.54;93637.78;5089563;28;20047;-85
2022/02/08 15:53:59;;;;;;;13.88;3.78;;;;;;;12.67;19.13;93635.44;5071447;28;20474;-87
2022/02/08 16:00:20;;;;;;;11.07;4.45;;;;;;;11.59;19.79;93634.16;5045329;28;20040;-86
2022/02/08 16:17:01;;;;;;;9.32;4.25;;;;;;;9.61;22.62;93623.63;5057869;28;20114;-86
2022/02/08 16:22:22;;;;;;;11.57;5.22;;;;;;;9.17;23.54;93614.16;5074330;28;20039;-87
2022/02/08 16:24:54;;;;;;;9.05;4.82;;;;;;;9.09;24.11;93626.91;5074856;28;20490;-87
2022/02/08 16:27:37;;;;;;;9.00;4.07;;;;;;;9.00;24.05;93633.59;5092788;28;20122;-87
2022/02/08 16:46:08;;;;;;;9.05;3.50;;;;;;;8.44;25.96;93645.06;5084735;28;20040;-86
2022/02/08 16:59:38;;;;;;;13.07;5.97;;;;;;;7.07;26.06;93629.13;5065660;28;20382;-86
2022/02/08 17:02:07;;;;;;;8.35;4.00;;;;;;;7.11;26.37;93656.22;5038741;28;20037;-85
2022/02/08 17:04:32;;;;;;;14.60;4.45;;;;;;;7.06;26.71;93663.97;5033727;28;20103;-86
2022/02/08 17:06:59;;;;;;;7.63;3.90;;;;;;;6.97;26.37;93666.16;5058711;28;20051;-87
2022/02/08 17:09:42;;;;;;;9.13;4.10;;;;;;;6.72;26.58;93635.28;5073660;28;20048;-85
2022/02/08 17:15:26;;;;;;;34.40;14.27;;;;;;;6.77;26.52;93677.00;5009941;28;20060;-86
2022/02/08 17:35:09;;;;;;;17.73;5.38;;;;;;;5.84;27.45;93653.59;5052913;28;20123;-86
2022/02/08 17:44:57;;;;;;;27.10;14.85;;;;;;;5.93;26.99;93674.06;5043146;28;20048;-86
2022/02/08 17:45:11;;;;;;;59.20;27.02;;;;;;;5.60;27.24;93641.66;5058336;28;20041;-85
2022/02/08 17:46:18;;;;;;;101.00;44.92;;;;;;;5.88;27.21;93694.72;5043281;28;20048;-86
2022/02/08 17:52:40;;;;;;;118.38;47.38;;;;;;;5.78;27.38;93700.50;5000833;28;20053;-88
2022/02/08 17:55:07;;;;;;;96.78;40.88;;;;;;;5.28;27.99;93636.78;5072780;28;20046;-86
2022/02/08 17:57:33;;;;;;;69.88;31.23;;;;;;;5.67;28.18;93703.88;5060412;28;20036;-87
2022/02/08 18:00:10;;;;;;;68.93;31.98;;;;;;;5.45;27.98;93678.47;5095156;28;20032;-87
2022/02/08 18:02:40;;;;;;;56.90;27.58;;;;;;;5.40;28.06;93678.34;5078183;28;20060;-87
2022/02/08 18:05:07;;;;;;;62.65;27.92;;;;;;;5.50;28.01;93709.75;5069610;28;20049;-86
2022/02/08 18:07:38;;;;;;;72.90;31.55;;;;;;;5.30;27.96;93688.50;5039046;28;20029;-87
2022/02/08 18:10:07;;;;;;;53.50;20.77;;;;;;;5.07;27.75;93658.88;5064679;28;20036;-86
2022/02/08 18:12:44;;;;;;;35.47;17.05;;;;;;;4.88;28.08;93641.81;5068241;28;20045;-88
2022/02/08 18:15:13;;;;;;;125.70;60.13;;;;;;;4.92;28.69;93655.91;5056907;28;20123;-86
2022/02/08 18:17:44;;;;;;;121.53;55.92;;;;;;;5.03;28.44;93682.91;5055599;28;20056;-86
2022/02/08 18:20:45;;;;;;;70.72;38.00;;;;;;;4.99;28.23;93685.16;5039981;28;20040;-87
2022/02/08 18:23:39;;;;;;;29.35;16.77;;;;;;;4.97;28.31;93690.56;5071909;28;20485;-87
2022/02/08 18:50:23;;;;;;;16.60;7.70;;;;;;;5.15;28.24;93725.25;5051656;28;20041;-86
2022/02/08 19:08:46;;;;;;;14.35;6.22;;;;;;;4.47;29.19;93718.56;5039922;28;20044;-87
2022/02/08 19:11:44;;;;;;;32.58;13.38;;;;;;;4.14;29.39;93678.25;5054480;28;20048;-87
2022/02/08 19:14:27;;;;;;;;;;;;;;;;;;;;;
2022/02/08 19:17:10;;;;;;;12.57;6.47;;;;;;;4.37;29.42;93725.06;5044356;28;20427;-88
2022/02/08 19:19:56;;;;;;;10.18;5.25;;;;;;;4.50;30.02;93759.63;5021243;28;20492;-85
2022/02/08 19:22:24;;;;;;;22.50;12.13;;;;;;;4.01;30.35;93686.19;5051992;28;20494;-88
2022/02/08 19:24:53;;;;;;;20.65;10.40;;;;;;;4.26;30.42;93736.16;5030526;28;20111;-86
2022/02/08 19:27:28;;;;;;;18.83;8.80;;;;;;;4.04;30.33;93709.09;5049595;28;20102;-87
2022/02/08 19:29:59;;;;;;;10.57;6.45;;;;;;;3.89;30.62;93694.66;5042319;28;20037;-87
2022/02/08 19:32:27;;;;;;;22.70;9.25;;;;;;;4.12;30.74;93739.88;5030084;28;20351;-86
2022/02/08 19:34:54;;;;;;;23.55;8.20;;;;;;;3.96;31.01;93726.50;5048853;28;20359;-87
2022/02/08 19:37:24;;;;;;;15.52;5.75;;;;;;;4.08;30.28;93749.91;5040624;28;20033;-86
2022/02/08 19:40:02;;;;;;;495.13;130.40;;;;;;;3.73;30.30;93700.41;5040793;28;20055;-87
2022/02/08 19:42:48;;;;;;;827.85;292.10;;;;;;;4.21;30.04;93772.31;5040654;28;20045;-84
2022/02/08 19:45:22;;;;;;;1305.50;557.22;;;;;;;3.69;30.32;93699.25;5057963;28;20032;-89
2022/02/08 19:47:54;;;;;;;1079.60;445.90;;;;;;;3.72;30.93;93706.59;5039252;28;20109;-86
2022/02/08 19:50:28;;;;;;;540.30;172.88;;;;;;;3.65;31.31;93714.44;5023090;28;20037;-86
2022/02/08 20:16:02;;;;;;;22.35;11.35;;;;;;;3.25;32.01;93693.25;4955365;29;20064;-86
2022/02/08 20:18:48;;;;;;;13.07;6.55;;;;;;;3.20;32.22;93690.50;4912987;29;20048;-87
2022/02/08 20:21:26;;;;;;;11.52;5.88;;;;;;;3.26;32.42;93700.78;4938250;28;20081;-86
2022/02/08 20:24:11;;;;;;;15.32;8.07;;;;;;;3.57;32.41;93742.41;5015784;28;20518;-87
2022/02/08 20:27:11;;;;;;;19.05;10.18;;;;;;;3.49;32.38;93740.84;5033438;28;20061;-86
2022/02/08 20:29:38;;;;;;;16.15;10.10;;;;;;;3.22;32.09;93697.06;5034703;28;20153;-86
2022/02/08 20:32:18;;;;;;;10.23;5.95;;;;;;;3.25;31.84;93706.22;5036657;28;20041;-87
2022/02/08 20:34:46;;;;;;;18.95;6.65;;;;;;;3.25;32.13;93714.75;5012619;28;20037;-86
2022/02/08 20:37:23;;;;;;;15.90;6.68;;;;;;;3.19;32.36;93709.63;5055348;28;20037;-87
2022/02/08 20:39:57;;;;;;;10.32;4.90;;;;;;;3.11;32.67;93708.09;5057060;28;20087;-87
2022/02/08 20:42:55;;;;;;;7.00;3.75;;;;;;;3.15;32.96;93716.22;5043693;28;20049;-87
2022/02/08 20:45:43;;;;;;;7.35;4.10;;;;;;;3.21;33.20;93728.31;5046589;28;20493;-86
2022/02/08 20:48:15;;;;;;;8.00;3.67;;;;;;;3.37;33.33;93758.06;5036991;28;20068;-87